createdAt,value
2023-04-01T00:02:07.278Z,99.90
2023-04-01T00:04:34.996Z,99.90
2023-04-01T00:07:02.206Z,99.90
2023-04-01T00:09:29.938Z,99.90
2023-04-01T00:11:59.468Z,99.90
2023-04-01T00:14:29.020Z,99.90
2023-04-01T00:16:56.516Z,99.90
2023-04-01T00:19:26.139Z,99.90
2023-04-01T00:21:55.601Z,99.90
2023-04-01T00:24:23.025Z,99.90
2023-04-01T00:26:50.037Z,99.90
2023-04-01T00:29:17.393Z,99.90
2023-04-01T00:31:46.830Z,99.90
2023-04-01T00:34:14.134Z,99.90
2023-04-01T00:36:43.630Z,99.90
2023-04-01T00:39:13.443Z,99.90
2023-04-01T00:41:43.043Z,99.90
2023-04-01T00:44:22.391Z,99.90
2023-04-01T00:46:50.288Z,99.90
2023-04-01T00:49:22.898Z,99.90
2023-04-01T00:51:54.314Z,99.90
2023-04-01T00:54:25.299Z,99.90
2023-04-01T00:56:55.126Z,99.90
2023-04-01T00:59:28.752Z,99.90
2023-04-01T01:01:56.119Z,99.90
2023-04-01T01:04:33.414Z,99.90
2023-04-01T01:07:12.524Z,99.90
2023-04-01T01:09:44.590Z,99.90
2023-04-01T01:12:24.784Z,99.90
2023-04-01T01:15:07.012Z,99.90
2023-04-01T01:17:52.701Z,99.90
2023-04-01T01:20:37.870Z,99.90
2023-04-01T01:23:13.851Z,99.90
2023-04-01T01:25:54.542Z,99.90
2023-04-01T01:28:27.458Z,99.90
2023-04-01T01:31:17.508Z,99.90
2023-04-01T01:33:49.526Z,99.90
2023-04-01T01:36:20.977Z,99.90
2023-04-01T01:38:51.073Z,99.90
2023-04-01T01:41:19.421Z,99.90
2023-04-01T01:43:49.486Z,99.90
2023-04-01T01:46:21.935Z,99.90
2023-04-01T01:48:51.502Z,99.90
2023-04-01T01:51:21.213Z,99.90
2023-04-01T01:53:48.297Z,99.90
2023-04-01T01:56:17.535Z,99.90
2023-04-01T01:58:47.983Z,99.90
2023-04-01T02:01:19.962Z,99.90
2023-04-01T02:03:49.267Z,99.90
2023-04-01T02:06:19.604Z,99.90
2023-04-01T02:08:50.014Z,99.90
2023-04-01T02:11:27.719Z,99.90
2023-04-01T02:13:54.697Z,99.90
2023-04-01T02:16:28.908Z,99.90
2023-04-01T02:18:57.575Z,99.90
2023-04-01T02:21:30.844Z,99.90
2023-04-01T02:24:02.478Z,99.90
2023-04-01T02:26:30.265Z,99.90
2023-04-01T02:29:03.673Z,99.90
2023-04-01T02:31:32.625Z,99.90
2023-04-01T02:34:00.175Z,99.90
2023-04-01T02:36:27.718Z,99.90
2023-04-01T02:38:56.834Z,99.90
2023-04-01T02:41:24.168Z,99.90
2023-04-01T02:43:51.298Z,99.90
2023-04-01T02:46:18.765Z,99.90
2023-04-01T02:48:45.834Z,99.90
2023-04-01T02:51:13.230Z,99.90
2023-04-01T02:53:40.277Z,99.90
2023-04-01T02:56:07.805Z,99.90
2023-04-01T02:58:34.812Z,99.90
2023-04-01T03:03:38.959Z,99.90
2023-04-01T03:06:08.152Z,99.90
2023-04-01T03:08:37.738Z,99.90
2023-04-01T03:11:05.804Z,99.90
2023-04-01T03:13:33.127Z,99.90
2023-04-01T03:16:05.392Z,99.90
2023-04-01T03:18:32.454Z,99.90
2023-04-01T03:21:16.885Z,99.90
2023-04-01T03:23:46.204Z,99.90
2023-04-01T03:26:18.450Z,99.90
2023-04-01T03:28:45.748Z,99.90
2023-04-01T03:31:13.346Z,99.90
2023-04-01T03:33:41.048Z,99.90
2023-04-01T03:36:08.785Z,99.90
2023-04-01T03:38:36.325Z,99.90
2023-04-01T03:41:04.126Z,99.90
2023-04-01T03:43:31.181Z,99.90
2023-04-01T03:45:58.618Z,99.90
2023-04-01T03:48:26.648Z,99.90
2023-04-01T03:50:54.018Z,99.90
2023-04-01T03:53:21.192Z,99.90
2023-04-01T03:55:51.182Z,99.90
2023-04-01T03:58:20.939Z,99.90
2023-04-01T04:00:50.454Z,99.90
2023-04-01T04:03:17.713Z,99.90
2023-04-01T04:05:49.456Z,99.90
2023-04-01T04:08:17.338Z,99.90
2023-04-01T04:10:47.552Z,99.90
2023-04-01T04:13:17.120Z,99.90
2023-04-01T04:15:44.437Z,99.90
2023-04-01T04:18:11.475Z,99.90
2023-04-01T04:20:45.431Z,99.90
2023-04-01T04:23:12.343Z,99.90
2023-04-01T04:25:42.312Z,99.90
2023-04-01T04:28:09.416Z,99.90
2023-04-01T04:30:36.766Z,99.90
2023-04-01T04:33:03.952Z,99.90
2023-04-01T04:35:31.643Z,99.90
2023-04-01T04:37:58.939Z,99.90
2023-04-01T04:40:26.267Z,99.90
2023-04-01T04:42:53.291Z,99.90
2023-04-01T04:45:20.674Z,99.90
2023-04-01T04:47:47.698Z,99.90
2023-04-01T04:50:15.140Z,99.90
2023-04-01T04:52:44.376Z,99.90
2023-04-01T04:55:11.715Z,99.90
2023-04-01T04:57:38.847Z,99.90
2023-04-01T05:00:06.974Z,99.90
2023-04-01T05:02:34.185Z,99.90
2023-04-01T05:05:01.669Z,99.90
2023-04-01T05:07:31.208Z,99.90
2023-04-01T05:09:58.524Z,99.90
2023-04-01T05:12:25.564Z,99.90
2023-04-01T05:14:52.927Z,99.90
2023-04-01T05:17:22.269Z,99.90
2023-04-01T05:19:52.186Z,99.90
2023-04-01T05:22:19.254Z,99.90
2023-04-01T05:24:49.186Z,99.90
2023-04-01T05:27:18.623Z,99.90
2023-04-01T05:29:48.280Z,99.90
2023-04-01T05:32:15.513Z,99.90
2023-04-01T05:34:45.224Z,99.90
2023-04-01T05:37:12.310Z,99.90
2023-04-01T05:39:41.919Z,99.90
2023-04-01T05:42:09.482Z,99.90
2023-04-01T05:44:37.672Z,99.90
2023-04-01T05:47:05.739Z,99.90
2023-04-01T05:49:34.693Z,99.90
2023-04-01T05:52:01.883Z,99.90
2023-04-01T05:54:29.347Z,99.90
2023-04-01T05:56:56.446Z,99.90
2023-04-01T05:59:23.906Z,99.90
2023-04-01T06:01:51.112Z,99.90
2023-04-01T06:04:19.628Z,99.90
2023-04-01T06:06:49.358Z,99.90
2023-04-01T06:09:19.219Z,99.90
2023-04-01T06:11:58.734Z,99.90
2023-04-01T06:14:37.321Z,99.90
2023-04-01T06:17:04.357Z,99.90
2023-04-01T06:20:15.093Z,99.90
2023-04-01T06:23:11.317Z,99.90
2023-04-01T06:25:49.231Z,99.90
2023-04-01T06:28:40.853Z,99.90
2023-04-01T06:31:43.545Z,99.90
2023-04-01T06:34:31.875Z,99.90
2023-04-01T06:37:08.425Z,99.90
2023-04-01T06:40:16.968Z,99.90
2023-04-01T06:43:10.444Z,99.90
2023-04-01T06:45:47.474Z,99.90
2023-04-01T06:48:36.843Z,99.90
2023-04-01T06:51:27.986Z,99.90
2023-04-01T06:53:57.660Z,99.90
2023-04-01T06:56:28.128Z,99.90
2023-04-01T06:59:13.288Z,99.90
2023-04-01T07:01:45.353Z,99.90
2023-04-01T07:04:12.808Z,99.90
2023-04-01T07:06:43.844Z,99.90
2023-04-01T07:09:20.052Z,99.90
2023-04-01T07:11:51.544Z,99.90
2023-04-01T07:14:39.373Z,99.90
2023-04-01T07:17:30.663Z,99.90
2023-04-01T07:20:06.460Z,99.90
2023-04-01T07:22:41.277Z,99.90
2023-04-01T07:25:21.352Z,99.90
2023-04-01T07:27:48.895Z,99.90
2023-04-01T07:30:19.495Z,99.90
2023-04-01T07:33:15.512Z,99.90
2023-04-01T07:35:53.102Z,99.90
2023-04-01T07:38:43.550Z,99.90
2023-04-01T07:41:19.417Z,99.90
2023-04-01T07:44:03.120Z,99.90
2023-04-01T07:46:30.428Z,99.90
2023-04-01T07:49:26.547Z,99.90
2023-04-01T07:51:59.718Z,99.90
2023-04-01T07:54:36.497Z,99.90
2023-04-01T07:57:27.138Z,99.90
2023-04-01T08:00:24.053Z,99.90
2023-04-01T08:03:32.801Z,99.90
2023-04-01T08:06:08.778Z,99.90
2023-04-01T08:08:54.999Z,99.90
2023-04-01T08:11:24.776Z,99.90
2023-04-01T08:14:22.476Z,99.90
2023-04-01T08:17:17.858Z,99.90
2023-04-01T08:20:00.451Z,99.90
2023-04-01T08:22:36.387Z,99.90
2023-04-01T08:25:07.200Z,99.90
2023-04-01T08:27:53.045Z,99.90
2023-04-01T08:30:20.454Z,99.90
2023-04-01T08:32:54.611Z,99.90
2023-04-01T08:35:34.258Z,99.90
2023-04-01T08:38:11.860Z,99.90
2023-04-01T08:41:06.818Z,99.90
2023-04-01T08:43:52.696Z,99.90
2023-04-01T08:46:53.906Z,99.90
2023-04-01T08:49:41.872Z,99.90
2023-04-01T08:52:50.052Z,99.90
2023-04-01T08:55:22.766Z,99.90
2023-04-01T08:58:01.742Z,99.90
2023-04-01T09:00:33.324Z,99.90
2023-04-01T09:03:00.936Z,99.90
2023-04-01T09:05:31.363Z,99.90
2023-04-01T09:08:20.023Z,99.90
2023-04-01T09:11:04.716Z,99.90
2023-04-01T09:13:40.587Z,99.90
2023-04-01T09:16:44.884Z,99.90
2023-04-01T09:19:36.407Z,99.90
2023-04-01T09:22:34.420Z,99.90
2023-04-01T09:25:22.934Z,99.90
2023-04-01T09:28:00.829Z,99.90
2023-04-01T09:30:42.864Z,99.90
2023-04-01T09:33:31.670Z,99.90
2023-04-01T09:36:19.015Z,99.90
2023-04-01T09:38:56.996Z,99.90
2023-04-01T09:41:30.103Z,99.90
2023-04-01T09:44:01.409Z,99.90
2023-04-01T09:47:07.500Z,99.50
2023-04-01T09:49:47.445Z,93.80
2023-04-01T09:52:20.379Z,86.90
2023-04-01T09:55:04.364Z,83.10
2023-04-01T09:58:10.268Z,83.30
2023-04-01T10:00:55.417Z,86.30
2023-04-01T10:03:57.650Z,89.20
2023-04-01T10:06:37.984Z,91.40
2023-04-01T10:09:23.699Z,93.00
2023-04-01T10:11:53.650Z,93.70
2023-04-01T10:15:02.548Z,94.00
2023-04-01T10:17:54.458Z,94.30
2023-04-01T10:21:09.520Z,94.00
2023-04-01T10:24:14.059Z,94.00
2023-04-01T10:26:58.483Z,93.80
2023-04-01T10:29:43.897Z,94.20
2023-04-01T10:32:37.324Z,94.80
2023-04-01T10:35:28.430Z,94.90
2023-04-01T10:38:10.657Z,93.00
2023-04-01T10:41:15.115Z,91.20
2023-04-01T10:44:20.263Z,91.10
2023-04-01T10:47:08.355Z,91.50
2023-04-01T10:49:54.534Z,91.80
2023-04-01T10:52:39.919Z,92.10
2023-04-01T10:55:25.771Z,92.40
2023-04-01T10:57:55.884Z,93.00
2023-04-01T11:00:47.967Z,93.00
2023-04-01T11:03:33.248Z,92.90
2023-04-01T11:06:30.878Z,93.00
2023-04-01T11:09:29.035Z,93.20
2023-04-01T11:12:18.117Z,93.20
2023-04-01T11:15:01.055Z,93.20
2023-04-01T11:17:55.385Z,92.60
2023-04-01T11:20:31.365Z,92.20
2023-04-01T11:23:04.526Z,91.70
2023-04-01T11:26:06.720Z,91.40
2023-04-01T11:28:49.242Z,91.20
2023-04-01T11:31:56.042Z,91.50
2023-04-01T11:34:32.042Z,92.00
2023-04-01T11:37:38.132Z,92.80
2023-04-01T11:40:17.716Z,93.00
2023-04-01T11:42:59.026Z,93.60
2023-04-01T11:46:07.181Z,94.00
2023-04-01T11:48:53.194Z,94.70
2023-04-01T11:51:53.743Z,94.90
2023-04-01T11:54:41.947Z,95.10
2023-04-01T11:57:27.769Z,95.10
2023-04-01T12:00:32.475Z,95.30
2023-04-01T12:03:22.816Z,95.10
2023-04-01T12:06:02.901Z,94.90
2023-04-01T12:09:00.636Z,95.00
2023-04-01T12:11:42.068Z,94.00
2023-04-01T12:14:27.523Z,93.40
2023-04-01T12:17:06.467Z,93.30
2023-04-01T12:19:40.808Z,93.00
2023-04-01T12:22:33.727Z,93.90
2023-04-01T12:25:25.625Z,94.60
2023-04-01T12:28:07.598Z,94.60
2023-04-01T12:30:40.918Z,95.50
2023-04-01T12:33:23.072Z,95.30
2023-04-01T12:36:27.930Z,94.30
2023-04-01T12:39:34.090Z,94.30
2023-04-01T12:42:22.781Z,94.00
2023-04-01T12:45:04.669Z,94.00
2023-04-01T12:47:35.370Z,93.60
2023-04-01T12:50:20.897Z,93.50
2023-04-01T12:53:04.599Z,93.70
2023-04-01T12:55:43.598Z,94.10
2023-04-01T12:58:51.387Z,94.20
2023-04-01T13:01:29.939Z,94.70
2023-04-01T13:04:36.566Z,94.70
2023-04-01T13:07:10.986Z,95.20
2023-04-01T13:09:52.064Z,95.30
2023-04-01T13:12:51.610Z,95.20
2023-04-01T13:15:41.834Z,95.10
2023-04-01T13:18:23.899Z,95.20
2023-04-01T13:21:11.120Z,94.80
2023-04-01T13:24:04.020Z,94.60
2023-04-01T13:26:37.321Z,94.50
2023-04-01T13:29:19.456Z,94.70
2023-04-01T13:32:40.847Z,94.50
2023-04-01T13:35:32.386Z,94.40
2023-04-01T13:38:32.570Z,94.30
2023-04-01T13:41:35.980Z,94.80
2023-04-01T13:44:22.825Z,95.10
2023-04-01T13:46:55.951Z,95.10
2023-04-01T13:49:35.465Z,95.20
2023-04-01T13:52:20.329Z,95.30
2023-04-01T13:55:05.877Z,95.20
2023-04-01T13:57:38.681Z,95.00
2023-04-01T14:00:18.475Z,94.90
2023-04-01T14:03:04.490Z,95.30
2023-04-01T14:06:09.689Z,95.10
2023-04-01T14:09:04.200Z,94.80
2023-04-01T14:11:31.500Z,95.30
2023-04-01T14:14:01.345Z,95.90
2023-04-01T14:16:42.838Z,96.00
2023-04-01T14:19:24.773Z,96.40
2023-04-01T14:22:06.848Z,96.30
2023-04-01T14:24:43.720Z,96.60
2023-04-01T14:27:26.134Z,96.80
2023-04-01T14:29:59.302Z,97.10
2023-04-01T14:32:47.026Z,97.10
2023-04-01T14:35:35.357Z,97.10
2023-04-01T14:38:30.334Z,97.00
2023-04-01T14:41:17.910Z,97.00
2023-04-01T14:44:14.501Z,97.10
2023-04-01T14:47:29.579Z,97.70
2023-04-01T14:50:20.875Z,97.60
2023-04-01T14:53:14.346Z,97.90
2023-04-01T14:55:44.735Z,98.10
2023-04-01T14:58:19.390Z,98.30
2023-04-01T15:00:55.633Z,98.20
2023-04-01T15:04:16.570Z,98.30
2023-04-01T15:07:06.089Z,98.50
2023-04-01T15:10:08.723Z,98.30
2023-04-01T15:12:57.567Z,97.30
2023-04-01T15:15:37.793Z,97.50
2023-04-01T15:18:33.250Z,97.30
2023-04-01T15:21:31.263Z,97.50
2023-04-01T15:24:11.453Z,97.40
2023-04-01T15:27:13.848Z,97.60
2023-04-01T15:29:59.388Z,98.00
2023-04-01T15:32:29.446Z,98.30
2023-04-01T15:35:21.446Z,98.80
2023-04-01T15:38:27.199Z,98.80
2023-04-01T15:41:17.952Z,99.20
2023-04-01T15:43:46.562Z,99.20
2023-04-01T15:46:47.456Z,99.70
2023-04-01T15:49:41.038Z,97.90
2023-04-01T16:06:54.062Z,98.60
2023-04-01T16:30:11.195Z,99.90
2023-04-01T16:48:21.359Z,99.90
2023-04-01T16:51:10.632Z,99.90
2023-04-01T16:53:44.455Z,99.90
2023-04-01T16:56:22.501Z,99.90
2023-04-01T16:59:07.422Z,99.90
2023-04-01T17:01:52.691Z,99.90
2023-04-01T17:04:41.561Z,99.90
2023-04-01T17:07:32.052Z,99.90
2023-04-01T17:10:17.182Z,99.90
2023-04-01T17:13:03.204Z,99.90
2023-04-01T17:15:36.684Z,99.90
2023-04-01T17:18:15.942Z,99.90
2023-04-01T17:20:51.520Z,99.90
2023-04-01T17:23:31.672Z,99.90
2023-04-01T17:26:07.890Z,99.90
2023-04-01T17:28:46.877Z,99.90
2023-04-01T17:31:48.162Z,99.90
2023-04-01T17:34:18.450Z,99.90
2023-04-01T17:36:45.460Z,99.90
2023-04-01T17:39:12.824Z,99.90
2023-04-01T17:42:07.398Z,99.90
2023-04-01T17:44:40.428Z,99.90
2023-04-01T17:47:28.686Z,99.90
2023-04-01T17:50:04.054Z,99.90
2023-04-01T17:52:43.230Z,99.90
2023-04-01T17:55:47.170Z,99.90
2023-04-01T17:58:27.668Z,99.90
2023-04-01T18:01:03.878Z,99.90
2023-04-01T18:10:12.017Z,99.90
2023-04-01T18:12:45.448Z,99.90
2023-04-01T18:15:27.356Z,99.90
2023-04-01T18:18:12.209Z,99.90
2023-04-01T18:20:42.366Z,99.90
2023-04-01T18:23:39.941Z,99.90
2023-04-01T18:26:32.974Z,99.90
2023-04-01T18:29:35.050Z,99.90
2023-04-01T18:32:13.849Z,99.90
2023-04-01T18:35:13.733Z,99.90
2023-04-01T18:37:48.165Z,99.90
2023-04-01T18:40:30.674Z,99.90
2023-04-01T18:43:16.246Z,99.90
2023-04-01T18:46:00.986Z,99.90
2023-04-01T18:48:52.309Z,99.90
2023-04-01T18:51:35.770Z,99.90
2023-04-01T18:54:12.218Z,99.90
2023-04-01T18:56:42.793Z,99.90
2023-04-01T18:59:35.648Z,99.90
2023-04-01T19:02:39.187Z,99.90
2023-04-01T19:05:15.343Z,99.90
2023-04-01T19:07:54.373Z,99.90
2023-04-01T19:10:52.865Z,99.90
2023-04-01T19:13:57.285Z,99.90
2023-04-01T19:16:43.230Z,99.90
2023-04-01T19:19:19.855Z,99.90
2023-04-01T19:21:59.382Z,99.90
2023-04-01T19:24:54.467Z,99.90
2023-04-01T19:27:40.392Z,99.90
2023-04-01T19:30:33.377Z,99.90
2023-04-01T19:33:27.813Z,99.90
2023-04-01T19:36:12.441Z,99.90
2023-04-01T19:39:05.085Z,99.90
2023-04-01T19:41:54.191Z,99.90
2023-04-01T19:44:42.767Z,99.90
2023-04-01T19:47:19.076Z,99.90
2023-04-01T19:50:03.876Z,99.90
2023-04-01T19:52:38.469Z,99.90
2023-04-01T19:55:15.064Z,99.90
2023-04-01T19:58:05.414Z,99.90
2023-04-01T20:00:47.494Z,99.90
2023-04-01T20:03:33.574Z,99.90
2023-04-01T20:06:21.764Z,99.90
2023-04-01T20:09:10.060Z,99.90
2023-04-01T20:11:59.671Z,99.90
2023-04-01T20:14:41.732Z,99.90
2023-04-01T20:17:25.457Z,99.90
2023-04-01T20:20:07.563Z,99.90
2023-04-01T20:22:46.926Z,99.90
2023-04-01T20:25:33.029Z,99.90
2023-04-01T20:28:10.876Z,99.90
2023-04-01T20:30:38.187Z,99.90
2023-04-01T20:33:08.497Z,99.90
2023-04-01T20:35:41.973Z,99.90
2023-04-01T20:38:24.255Z,99.90
2023-04-01T20:40:58.588Z,99.90
2023-04-01T20:43:34.636Z,99.90
2023-04-01T20:46:37.370Z,99.90
2023-04-01T20:49:34.646Z,99.90
2023-04-01T20:52:13.161Z,99.90
2023-04-01T20:55:04.936Z,99.90
2023-04-01T20:57:56.268Z,99.90
2023-04-01T21:00:54.386Z,99.90
2023-04-01T21:03:39.732Z,99.90
2023-04-01T21:06:09.553Z,99.90
2023-04-01T21:09:08.332Z,99.90
2023-04-01T21:11:57.285Z,99.90
2023-04-01T21:14:36.456Z,99.90
2023-04-01T21:17:24.841Z,99.90
2023-04-01T21:20:07.248Z,99.90
2023-04-01T21:22:42.984Z,99.90
2023-04-01T21:25:47.199Z,99.90
2023-04-01T21:28:26.259Z,99.90
2023-04-01T21:30:53.557Z,99.90
2023-04-01T21:33:45.273Z,99.90
2023-04-01T21:36:31.414Z,99.90
2023-04-01T21:39:33.477Z,99.90
2023-04-01T21:42:36.494Z,99.90
2023-04-01T21:45:25.407Z,99.90
2023-04-01T21:48:16.607Z,99.90
2023-04-01T21:51:04.901Z,99.90
2023-04-01T21:53:44.205Z,99.90
2023-04-01T21:56:50.966Z,99.90
2023-04-01T21:59:44.786Z,99.90
2023-04-01T22:02:36.203Z,99.90
2023-04-01T22:05:12.950Z,99.90
2023-04-01T22:08:26.996Z,99.90
2023-04-01T22:11:21.842Z,99.90
2023-04-01T22:14:00.562Z,99.90
2023-04-01T22:16:36.945Z,99.90
2023-04-01T22:19:04.037Z,99.90
2023-04-01T22:21:44.158Z,99.90
2023-04-01T22:24:11.254Z,99.90
2023-04-01T22:26:47.336Z,99.90
2023-04-01T22:29:27.870Z,99.90
2023-04-01T22:31:58.166Z,99.90
2023-04-01T22:34:43.223Z,99.90
2023-04-01T22:37:24.334Z,99.90
2023-04-01T22:40:00.373Z,99.90
2023-04-01T22:42:51.799Z,99.90
2023-04-01T22:45:59.493Z,99.90
2023-04-01T22:48:38.668Z,99.90
2023-04-01T22:51:13.893Z,99.90
2023-04-01T22:53:41.155Z,99.90
2023-04-01T22:56:37.588Z,99.90
2023-04-01T22:59:20.284Z,99.90
2023-04-01T23:02:07.208Z,99.90
2023-04-01T23:04:39.921Z,99.90
2023-04-01T23:07:42.871Z,99.90
2023-04-01T23:10:21.861Z,99.90
2023-04-01T23:12:50.306Z,99.90
2023-04-01T23:15:20.547Z,99.90
2023-04-01T23:18:13.845Z,99.90
2023-04-01T23:20:56.319Z,99.90
2023-04-01T23:23:41.808Z,99.90
2023-04-01T23:26:18.334Z,99.90
2023-04-01T23:28:55.588Z,99.90
2023-04-01T23:31:36.693Z,99.90
2023-04-01T23:34:06.943Z,99.90
2023-04-01T23:36:39.793Z,99.90
2023-04-01T23:39:21.805Z,99.90
2023-04-01T23:41:51.485Z,99.90
2023-04-01T23:44:21.819Z,99.90
2023-04-01T23:46:49.872Z,99.90
2023-04-01T23:49:21.374Z,99.90
2023-04-01T23:52:03.072Z,99.90
2023-04-01T23:54:57.403Z,99.90
2023-04-01T23:57:37.825Z,99.90
